Saginaw, MI (48604)

8:43 PM EDT on June 27, 2017 (GMT -0400)
NSG-Downtown Saginaw | | Change Station
Active Advisory: Flood Warning

Elev 607 ft 43.43 °N, 83.94 °W | Updated 1 second ago

Clear
Clear
69.4 °F
Feels Like 69.4 °F
N
10.1
Wind Variable Wind from West
Gusts 12.5 mph

Today
High -- | Low -- °F
--% Chance of Precip.
Yesterday
High -- | Low -- °F
Precip. -- in
Pressure 29.99 in
Visibility 10.0 miles
Clouds Scattered Clouds 6000 ft
Dew Point 55 °F
Humidity 61%
Rainfall 0.00 in
Snow Depth Not available.
5:57 AM 9:20 PM
Waxing Crescent, 20% visible
METAR KHYX 280015Z AUTO 25006KT 10SM SCT060 20/10 A2999 RMK AO2
Pressure 29.99 in
Visibility 10.0 miles
Clouds Scattered Clouds 6000 ft
Dew Point 55 °F
Humidity 61%
Rainfall 0.00 in
Snow Depth Not available.
5:57 AM 9:20 PM
Waxing Crescent, 20% visible
METAR KHYX 280015Z AUTO 25006KT 10SM SCT060 20/10 A2999 RMK AO2

Get Your Daily Forecast Email!

Thanks for signing up!

Be on the lookout for a verification email in your inbox.

You'll start receiving severe weather alerts in your inbox..

×

10-Day Weather Forecast

Almanac

Astronomy

Jun. 27, 2017 Rise Set
Actual Time
Civil Twilight
Nautical Twilight
Astronomical Twilight
Moon
Length of Visible Light
Length of Day
Tomorrow will be .
, % of the Moon is Illuminated

Today's Extremes

State Highs State Lows

Community

WunderPhotos

Category 6

Welcome to Category 6. This is the collective home for Weather Underground's featured writeups by Dr. Jeff Masters (right), Bob Henson (left), Chris Burt, and other regular contributors.

Nearby

Air Quality

  Air Quality AQ Index Pollutant
Not available.

Snow Depth

Station Depth Elevation

Earthquake Activity

City Distance Mag. Time & Date
Minimum magnitude displayed is 2.5.

Coastal Water Temperatures

Place Temperature

Stations

Nearby Weather Stations

Station Location Temp. Windchill Dew Point Humidity Wind Precip. Elev Updated Type
                   

Watches & Warnings

Flood Warning
Issued: 3:51 PM EDT Jun. 27, 2017 – National Weather Service

A Flood Warning continues for
Saginaw river at Saginaw.
* From now until further notice.
* At 3 PM Tuesday the stage is 18.0 feet and falling.
* Flood stage is 17.0 feet.
* Minor flooding is occurring.
* Forecast... the river should fall below flood stage tomorrow
morning.


Lat... Lon 4341 8399 4365 8387 4363 8378 4339 8389